sensor_id;sensor_type;location;lat;lon;timestamp;temperature;humidity
56538;DHT22;42435;53.292;6.000;2024-03-08T00:02:04;2.50;82.00
56538;DHT22;42435;53.292;6.000;2024-03-08T00:04:33;2.60;82.00
56538;DHT22;42435;53.292;6.000;2024-03-08T00:07:01;2.60;82.10
56538;DHT22;42435;53.292;6.000;2024-03-08T00:09:27;2.50;82.10
56538;DHT22;42435;53.292;6.000;2024-03-08T00:11:57;2.60;82.10
56538;DHT22;42435;53.292;6.000;2024-03-08T00:14:25;2.50;82.20
56538;DHT22;42435;53.292;6.000;2024-03-08T00:16:55;2.60;82.20
56538;DHT22;42435;53.292;6.000;2024-03-08T00:19:22;2.50;82.20
56538;DHT22;42435;53.292;6.000;2024-03-08T00:21:54;2.50;82.20
56538;DHT22;42435;53.292;6.000;2024-03-08T00:24:22;2.50;82.20
56538;DHT22;42435;53.292;6.000;2024-03-08T00:26:50;2.50;82.20
56538;DHT22;42435;53.292;6.000;2024-03-08T00:29:19;2.50;82.30
56538;DHT22;42435;53.292;6.000;2024-03-08T00:31:47;2.50;82.40
56538;DHT22;42435;53.292;6.000;2024-03-08T00:34:13;2.50;82.40
56538;DHT22;42435;53.292;6.000;2024-03-08T00:36:43;2.40;82.40
56538;DHT22;42435;53.292;6.000;2024-03-08T00:39:10;2.50;82.50
56538;DHT22;42435;53.292;6.000;2024-03-08T00:41:47;2.40;82.50
56538;DHT22;42435;53.292;6.000;2024-03-08T00:44:32;2.50;82.50
56538;DHT22;42435;53.292;6.000;2024-03-08T00:46:59;2.40;82.50
56538;DHT22;42435;53.292;6.000;2024-03-08T00:49:27;2.40;82.50
56538;DHT22;42435;53.292;6.000;2024-03-08T00:51:53;2.40;82.60
56538;DHT22;42435;53.292;6.000;2024-03-08T00:54:29;2.40;82.60
56538;DHT22;42435;53.292;6.000;2024-03-08T00:56:59;2.40;82.70
56538;DHT22;42435;53.292;6.000;2024-03-08T00:59:40;2.40;82.70
56538;DHT22;42435;53.292;6.000;2024-03-08T01:02:21;2.40;82.70
56538;DHT22;42435;53.292;6.000;2024-03-08T01:04:54;2.40;82.70
56538;DHT22;42435;53.292;6.000;2024-03-08T01:07:20;2.40;82.70
56538;DHT22;42435;53.292;6.000;2024-03-08T01:09:46;2.40;82.70
56538;DHT22;42435;53.292;6.000;2024-03-08T01:12:13;2.40;82.80
56538;DHT22;42435;53.292;6.000;2024-03-08T01:14:40;2.40;82.90
56538;DHT22;42435;53.292;6.000;2024-03-08T01:17:09;2.40;82.80
56538;DHT22;42435;53.292;6.000;2024-03-08T01:19:39;2.40;82.90
56538;DHT22;42435;53.292;6.000;2024-03-08T01:22:08;2.40;82.90
56538;DHT22;42435;53.292;6.000;2024-03-08T01:24:36;2.40;83.00
56538;DHT22;42435;53.292;6.000;2024-03-08T01:27:03;2.40;83.00
56538;DHT22;42435;53.292;6.000;2024-03-08T01:29:33;2.40;83.00
56538;DHT22;42435;53.292;6.000;2024-03-08T01:31:59;2.40;83.00
56538;DHT22;42435;53.292;6.000;2024-03-08T01:34:28;2.40;83.00
56538;DHT22;42435;53.292;6.000;2024-03-08T01:36:57;2.40;83.00
56538;DHT22;42435;53.292;6.000;2024-03-08T01:39:26;2.40;83.00
56538;DHT22;42435;53.292;6.000;2024-03-08T01:41:52;2.40;83.10
56538;DHT22;42435;53.292;6.000;2024-03-08T01:44:23;2.40;83.10
56538;DHT22;42435;53.292;6.000;2024-03-08T01:46:50;2.40;83.00
56538;DHT22;42435;53.292;6.000;2024-03-08T01:49:18;2.40;83.00
56538;DHT22;42435;53.292;6.000;2024-03-08T01:51:51;2.40;83.00
56538;DHT22;42435;53.292;6.000;2024-03-08T01:54:19;2.40;83.10
56538;DHT22;42435;53.292;6.000;2024-03-08T01:56:46;2.40;83.10
56538;DHT22;42435;53.292;6.000;2024-03-08T01:59:16;2.40;83.10
56538;DHT22;42435;53.292;6.000;2024-03-08T02:01:53;2.40;83.20
56538;DHT22;42435;53.292;6.000;2024-03-08T02:04:29;2.40;83.10
56538;DHT22;42435;53.292;6.000;2024-03-08T02:06:59;2.30;83.20
56538;DHT22;42435;53.292;6.000;2024-03-08T02:09:26;2.40;83.10
56538;DHT22;42435;53.292;6.000;2024-03-08T02:11:52;2.30;83.10
56538;DHT22;42435;53.292;6.000;2024-03-08T02:14:20;2.30;83.10
56538;DHT22;42435;53.292;6.000;2024-03-08T02:16:55;2.30;83.10
56538;DHT22;42435;53.292;6.000;2024-03-08T02:19:23;2.30;83.20
56538;DHT22;42435;53.292;6.000;2024-03-08T02:21:51;2.30;83.10
56538;DHT22;42435;53.292;6.000;2024-03-08T02:24:19;2.30;83.10
56538;DHT22;42435;53.292;6.000;2024-03-08T02:26:48;2.20;83.10
56538;DHT22;42435;53.292;6.000;2024-03-08T02:29:14;2.20;83.20
56538;DHT22;42435;53.292;6.000;2024-03-08T02:31:44;2.20;83.20
56538;DHT22;42435;53.292;6.000;2024-03-08T02:34:14;2.20;83.20
56538;DHT22;42435;53.292;6.000;2024-03-08T02:36:45;2.20;83.10
56538;DHT22;42435;53.292;6.000;2024-03-08T02:39:13;2.20;83.10
56538;DHT22;42435;53.292;6.000;2024-03-08T02:41:40;2.20;83.10
56538;DHT22;42435;53.292;6.000;2024-03-08T02:44:06;2.20;83.10
56538;DHT22;42435;53.292;6.000;2024-03-08T02:46:35;2.20;83.10
56538;DHT22;42435;53.292;6.000;2024-03-08T02:49:11;2.10;83.10
56538;DHT22;42435;53.292;6.000;2024-03-08T02:51:46;2.10;83.10
56538;DHT22;42435;53.292;6.000;2024-03-08T02:54:12;2.10;83.00
56538;DHT22;42435;53.292;6.000;2024-03-08T02:56:45;2.10;83.00
56538;DHT22;42435;53.292;6.000;2024-03-08T02:59:23;2.10;83.00
56538;DHT22;42435;53.292;6.000;2024-03-08T03:01:50;2.10;83.00
56538;DHT22;42435;53.292;6.000;2024-03-08T03:04:17;2.10;83.00
56538;DHT22;42435;53.292;6.000;2024-03-08T03:06:50;2.10;83.00
56538;DHT22;42435;53.292;6.000;2024-03-08T03:09:20;2.00;82.90
56538;DHT22;42435;53.292;6.000;2024-03-08T03:11:53;2.00;82.90
56538;DHT22;42435;53.292;6.000;2024-03-08T03:14:24;2.00;82.90
56538;DHT22;42435;53.292;6.000;2024-03-08T03:16:53;2.00;82.90
56538;DHT22;42435;53.292;6.000;2024-03-08T03:19:20;2.00;82.90
56538;DHT22;42435;53.292;6.000;2024-03-08T03:21:49;2.00;82.90
56538;DHT22;42435;53.292;6.000;2024-03-08T03:24:21;1.90;82.80
56538;DHT22;42435;53.292;6.000;2024-03-08T03:26:48;2.00;82.80
56538;DHT22;42435;53.292;6.000;2024-03-08T03:29:18;1.90;82.70
56538;DHT22;42435;53.292;6.000;2024-03-08T03:31:44;2.00;82.70
56538;DHT22;42435;53.292;6.000;2024-03-08T03:34:13;1.90;82.60
56538;DHT22;42435;53.292;6.000;2024-03-08T03:36:41;1.90;82.60
56538;DHT22;42435;53.292;6.000;2024-03-08T03:39:10;1.90;82.60
56538;DHT22;42435;53.292;6.000;2024-03-08T03:41:38;1.90;82.60
56538;DHT22;42435;53.292;6.000;2024-03-08T03:44:10;1.90;82.60
56538;DHT22;42435;53.292;6.000;2024-03-08T03:46:37;1.90;82.60
56538;DHT22;42435;53.292;6.000;2024-03-08T03:49:13;1.80;82.50
56538;DHT22;42435;53.292;6.000;2024-03-08T03:51:39;1.90;82.50
56538;DHT22;42435;53.292;6.000;2024-03-08T03:54:17;1.90;82.50
56538;DHT22;42435;53.292;6.000;2024-03-08T03:56:48;1.80;82.40
56538;DHT22;42435;53.292;6.000;2024-03-08T03:59:26;1.80;82.40
56538;DHT22;42435;53.292;6.000;2024-03-08T04:01:55;1.80;82.40
56538;DHT22;42435;53.292;6.000;2024-03-08T04:04:26;1.80;82.30
56538;DHT22;42435;53.292;6.000;2024-03-08T04:06:59;1.80;82.30
56538;DHT22;42435;53.292;6.000;2024-03-08T04:09:27;1.70;82.30
56538;DHT22;42435;53.292;6.000;2024-03-08T04:11:56;1.70;82.30
56538;DHT22;42435;53.292;6.000;2024-03-08T04:14:27;1.70;82.30
56538;DHT22;42435;53.292;6.000;2024-03-08T04:16:54;1.70;82.30
56538;DHT22;42435;53.292;6.000;2024-03-08T04:19:22;1.70;82.30
56538;DHT22;42435;53.292;6.000;2024-03-08T04:21:50;1.70;82.30
56538;DHT22;42435;53.292;6.000;2024-03-08T04:24:19;1.70;82.30
56538;DHT22;42435;53.292;6.000;2024-03-08T04:26:49;1.70;82.30
56538;DHT22;42435;53.292;6.000;2024-03-08T04:29:15;1.60;82.30
56538;DHT22;42435;53.292;6.000;2024-03-08T04:31:40;1.60;82.20
56538;DHT22;42435;53.292;6.000;2024-03-08T04:34:11;1.60;82.20
56538;DHT22;42435;53.292;6.000;2024-03-08T04:36:38;1.60;82.20
56538;DHT22;42435;53.292;6.000;2024-03-08T04:39:06;1.60;82.20
56538;DHT22;42435;53.292;6.000;2024-03-08T04:41:38;1.60;82.10
56538;DHT22;42435;53.292;6.000;2024-03-08T04:44:04;1.60;82.20
56538;DHT22;42435;53.292;6.000;2024-03-08T04:46:34;1.50;82.20
56538;DHT22;42435;53.292;6.000;2024-03-08T04:49:01;1.50;82.10
56538;DHT22;42435;53.292;6.000;2024-03-08T04:51:26;1.50;82.10
56538;DHT22;42435;53.292;6.000;2024-03-08T04:53:55;1.50;82.10
56538;DHT22;42435;53.292;6.000;2024-03-08T04:56:22;1.40;82.10
56538;DHT22;42435;53.292;6.000;2024-03-08T04:58:55;1.40;82.10
56538;DHT22;42435;53.292;6.000;2024-03-08T05:01:23;1.40;82.10
56538;DHT22;42435;53.292;6.000;2024-03-08T05:03:51;1.40;82.10
56538;DHT22;42435;53.292;6.000;2024-03-08T05:06:29;1.40;82.10
56538;DHT22;42435;53.292;6.000;2024-03-08T05:08:59;1.40;82.00
56538;DHT22;42435;53.292;6.000;2024-03-08T05:11:25;1.40;82.00
56538;DHT22;42435;53.292;6.000;2024-03-08T05:13:51;1.40;81.90
56538;DHT22;42435;53.292;6.000;2024-03-08T05:16:22;1.40;81.90
56538;DHT22;42435;53.292;6.000;2024-03-08T05:18:51;1.40;82.00
56538;DHT22;42435;53.292;6.000;2024-03-08T05:21:19;1.30;82.00
56538;DHT22;42435;53.292;6.000;2024-03-08T05:23:50;1.30;81.90
56538;DHT22;42435;53.292;6.000;2024-03-08T05:26:20;1.40;82.00
56538;DHT22;42435;53.292;6.000;2024-03-08T05:28:58;1.30;81.90
56538;DHT22;42435;53.292;6.000;2024-03-08T05:31:26;1.30;81.90
56538;DHT22;42435;53.292;6.000;2024-03-08T05:33:53;1.30;81.90
56538;DHT22;42435;53.292;6.000;2024-03-08T05:36:24;1.20;82.00
56538;DHT22;42435;53.292;6.000;2024-03-08T05:39:00;1.30;82.00
56538;DHT22;42435;53.292;6.000;2024-03-08T05:41:26;1.20;82.00
56538;DHT22;42435;53.292;6.000;2024-03-08T05:43:54;1.20;82.00
56538;DHT22;42435;53.292;6.000;2024-03-08T05:46:21;1.20;82.10
56538;DHT22;42435;53.292;6.000;2024-03-08T05:48:48;1.20;82.10
56538;DHT22;42435;53.292;6.000;2024-03-08T05:51:19;1.20;82.10
56538;DHT22;42435;53.292;6.000;2024-03-08T05:53:49;1.20;82.00
56538;DHT22;42435;53.292;6.000;2024-03-08T05:56:22;1.20;82.00
56538;DHT22;42435;53.292;6.000;2024-03-08T05:58:54;1.10;82.00
56538;DHT22;42435;53.292;6.000;2024-03-08T06:01:20;1.20;82.00
56538;DHT22;42435;53.292;6.000;2024-03-08T06:03:50;1.20;82.00
56538;DHT22;42435;53.292;6.000;2024-03-08T06:06:15;1.10;81.90
56538;DHT22;42435;53.292;6.000;2024-03-08T06:08:56;1.10;81.90
56538;DHT22;42435;53.292;6.000;2024-03-08T06:11:28;1.10;81.90
56538;DHT22;42435;53.292;6.000;2024-03-08T06:14:02;1.10;81.90
56538;DHT22;42435;53.292;6.000;2024-03-08T06:16:34;1.10;81.90
56538;DHT22;42435;53.292;6.000;2024-03-08T06:19:03;1.10;81.90
56538;DHT22;42435;53.292;6.000;2024-03-08T06:21:30;1.00;81.90
56538;DHT22;42435;53.292;6.000;2024-03-08T06:24:05;1.10;81.90
56538;DHT22;42435;53.292;6.000;2024-03-08T06:26:33;1.10;81.80
56538;DHT22;42435;53.292;6.000;2024-03-08T06:29:01;1.10;81.90
56538;DHT22;42435;53.292;6.000;2024-03-08T06:31:38;1.10;81.90
56538;DHT22;42435;53.292;6.000;2024-03-08T06:34:08;1.10;81.90
56538;DHT22;42435;53.292;6.000;2024-03-08T06:36:41;1.10;81.90
56538;DHT22;42435;53.292;6.000;2024-03-08T06:39:08;1.10;81.90
56538;DHT22;42435;53.292;6.000;2024-03-08T06:41:41;1.10;81.90
56538;DHT22;42435;53.292;6.000;2024-03-08T06:44:06;1.10;81.90
56538;DHT22;42435;53.292;6.000;2024-03-08T06:46:42;1.20;81.90
56538;DHT22;42435;53.292;6.000;2024-03-08T06:49:28;1.20;82.00
56538;DHT22;42435;53.292;6.000;2024-03-08T06:51:57;1.20;82.00
56538;DHT22;42435;53.292;6.000;2024-03-08T06:54:23;1.20;82.00
56538;DHT22;42435;53.292;6.000;2024-03-08T06:56:52;1.30;82.00
56538;DHT22;42435;53.292;6.000;2024-03-08T06:59:19;1.30;82.00
56538;DHT22;42435;53.292;6.000;2024-03-08T07:01:45;1.30;81.90
56538;DHT22;42435;53.292;6.000;2024-03-08T07:04:15;1.40;81.90
56538;DHT22;42435;53.292;6.000;2024-03-08T07:06:43;1.40;81.90
56538;DHT22;42435;53.292;6.000;2024-03-08T07:09:10;1.40;81.80
56538;DHT22;42435;53.292;6.000;2024-03-08T07:11:37;1.50;81.70
56538;DHT22;42435;53.292;6.000;2024-03-08T07:14:08;1.50;81.70
56538;DHT22;42435;53.292;6.000;2024-03-08T07:16:35;1.50;81.60
56538;DHT22;42435;53.292;6.000;2024-03-08T07:19:05;1.50;81.60
56538;DHT22;42435;53.292;6.000;2024-03-08T07:21:32;1.60;81.60
56538;DHT22;42435;53.292;6.000;2024-03-08T07:23:59;1.60;81.50
56538;DHT22;42435;53.292;6.000;2024-03-08T07:26:24;1.70;81.50
56538;DHT22;42435;53.292;6.000;2024-03-08T07:28:53;1.70;81.50
56538;DHT22;42435;53.292;6.000;2024-03-08T07:31:20;1.70;81.40
56538;DHT22;42435;53.292;6.000;2024-03-08T07:34:10;1.80;81.30
56538;DHT22;42435;53.292;6.000;2024-03-08T07:36:47;1.80;81.30
56538;DHT22;42435;53.292;6.000;2024-03-08T07:39:15;1.90;81.30
56538;DHT22;42435;53.292;6.000;2024-03-08T07:41:47;2.00;81.30
56538;DHT22;42435;53.292;6.000;2024-03-08T07:44:14;2.00;81.30
56538;DHT22;42435;53.292;6.000;2024-03-08T07:46:47;2.10;81.30
56538;DHT22;42435;53.292;6.000;2024-03-08T07:49:22;2.20;81.40
56538;DHT22;42435;53.292;6.000;2024-03-08T07:52:00;2.30;81.40
56538;DHT22;42435;53.292;6.000;2024-03-08T07:54:27;2.40;81.30
56538;DHT22;42435;53.292;6.000;2024-03-08T07:56:56;2.50;81.40
56538;DHT22;42435;53.292;6.000;2024-03-08T07:59:25;2.60;81.30
56538;DHT22;42435;53.292;6.000;2024-03-08T08:01:52;2.70;81.20
56538;DHT22;42435;53.292;6.000;2024-03-08T08:04:19;2.80;81.10
56538;DHT22;42435;53.292;6.000;2024-03-08T08:06:59;2.90;80.90
56538;DHT22;42435;53.292;6.000;2024-03-08T08:09:26;3.10;80.60
56538;DHT22;42435;53.292;6.000;2024-03-08T08:12:00;3.20;80.40
56538;DHT22;42435;53.292;6.000;2024-03-08T08:14:40;3.30;80.20
56538;DHT22;42435;53.292;6.000;2024-03-08T08:17:10;3.50;79.90
56538;DHT22;42435;53.292;6.000;2024-03-08T08:19:42;3.50;79.70
56538;DHT22;42435;53.292;6.000;2024-03-08T08:22:09;3.60;79.30
56538;DHT22;42435;53.292;6.000;2024-03-08T08:24:37;3.70;79.20
56538;DHT22;42435;53.292;6.000;2024-03-08T08:27:12;3.90;78.90
56538;DHT22;42435;53.292;6.000;2024-03-08T08:29:40;3.90;78.80
56538;DHT22;42435;53.292;6.000;2024-03-08T08:32:08;4.10;78.00
56538;DHT22;42435;53.292;6.000;2024-03-08T08:34:44;4.20;78.10
56538;DHT22;42435;53.292;6.000;2024-03-08T08:37:09;4.20;77.90
56538;DHT22;42435;53.292;6.000;2024-03-08T08:39:36;4.30;77.70
56538;DHT22;42435;53.292;6.000;2024-03-08T08:42:04;4.40;77.70
56538;DHT22;42435;53.292;6.000;2024-03-08T08:44:36;4.50;77.30
56538;DHT22;42435;53.292;6.000;2024-03-08T08:47:03;4.50;76.90
56538;DHT22;42435;53.292;6.000;2024-03-08T08:49:33;4.60;76.70
56538;DHT22;42435;53.292;6.000;2024-03-08T08:52:00;4.70;76.70
56538;DHT22;42435;53.292;6.000;2024-03-08T08:54:29;4.90;76.80
56538;DHT22;42435;53.292;6.000;2024-03-08T08:56:57;5.00;76.60
56538;DHT22;42435;53.292;6.000;2024-03-08T08:59:44;5.10;75.60
56538;DHT22;42435;53.292;6.000;2024-03-08T09:02:11;5.20;75.70
56538;DHT22;42435;53.292;6.000;2024-03-08T09:04:43;5.40;74.90
56538;DHT22;42435;53.292;6.000;2024-03-08T09:07:14;5.40;74.50
56538;DHT22;42435;53.292;6.000;2024-03-08T09:09:43;5.50;74.40
56538;DHT22;42435;53.292;6.000;2024-03-08T09:12:23;5.60;74.50
56538;DHT22;42435;53.292;6.000;2024-03-08T09:14:58;5.70;74.20
56538;DHT22;42435;53.292;6.000;2024-03-08T09:17:29;5.80;74.00
56538;DHT22;42435;53.292;6.000;2024-03-08T09:20:00;5.90;73.30
56538;DHT22;42435;53.292;6.000;2024-03-08T09:22:32;6.00;73.30
56538;DHT22;42435;53.292;6.000;2024-03-08T09:24:59;6.10;73.40
56538;DHT22;42435;53.292;6.000;2024-03-08T09:27:35;6.20;73.30
56538;DHT22;42435;53.292;6.000;2024-03-08T09:30:08;6.30;73.10
56538;DHT22;42435;53.292;6.000;2024-03-08T09:32:36;6.30;72.60
56538;DHT22;42435;53.292;6.000;2024-03-08T09:35:06;6.40;72.50
56538;DHT22;42435;53.292;6.000;2024-03-08T09:37:33;6.60;72.50
56538;DHT22;42435;53.292;6.000;2024-03-08T09:40:04;6.70;71.70
56538;DHT22;42435;53.292;6.000;2024-03-08T09:42:38;6.90;71.70
56538;DHT22;42435;53.292;6.000;2024-03-08T09:45:12;6.90;70.70
56538;DHT22;42435;53.292;6.000;2024-03-08T09:47:44;7.00;70.30
56538;DHT22;42435;53.292;6.000;2024-03-08T09:50:17;7.00;70.30
56538;DHT22;42435;53.292;6.000;2024-03-08T09:52:50;7.10;70.30
56538;DHT22;42435;53.292;6.000;2024-03-08T09:55:16;7.20;69.80
56538;DHT22;42435;53.292;6.000;2024-03-08T09:57:53;7.30;69.30
56538;DHT22;42435;53.292;6.000;2024-03-08T10:00:39;7.30;68.90
56538;DHT22;42435;53.292;6.000;2024-03-08T10:03:11;7.40;68.30
56538;DHT22;42435;53.292;6.000;2024-03-08T10:05:39;7.40;68.10
56538;DHT22;42435;53.292;6.000;2024-03-08T10:08:07;7.50;67.30
56538;DHT22;42435;53.292;6.000;2024-03-08T10:10:40;7.60;67.40
56538;DHT22;42435;53.292;6.000;2024-03-08T10:13:09;7.60;66.60
56538;DHT22;42435;53.292;6.000;2024-03-08T10:15:37;7.60;67.00
56538;DHT22;42435;53.292;6.000;2024-03-08T10:18:07;7.60;66.60
56538;DHT22;42435;53.292;6.000;2024-03-08T10:20:36;7.50;66.50
56538;DHT22;42435;53.292;6.000;2024-03-08T10:23:03;7.60;66.40
56538;DHT22;42435;53.292;6.000;2024-03-08T10:25:34;7.60;66.30
56538;DHT22;42435;53.292;6.000;2024-03-08T10:28:03;7.60;66.10
56538;DHT22;42435;53.292;6.000;2024-03-08T10:30:35;7.70;66.00
56538;DHT22;42435;53.292;6.000;2024-03-08T10:33:01;7.80;65.90
56538;DHT22;42435;53.292;6.000;2024-03-08T10:35:32;7.90;65.50
56538;DHT22;42435;53.292;6.000;2024-03-08T10:37:58;7.90;65.50
56538;DHT22;42435;53.292;6.000;2024-03-08T10:40:29;8.00;65.70
56538;DHT22;42435;53.292;6.000;2024-03-08T10:43:02;8.10;65.90
56538;DHT22;42435;53.292;6.000;2024-03-08T10:45:42;8.20;65.60
56538;DHT22;42435;53.292;6.000;2024-03-08T10:48:31;8.40;64.60
56538;DHT22;42435;53.292;6.000;2024-03-08T10:51:14;8.50;64.00
56538;DHT22;42435;53.292;6.000;2024-03-08T10:53:46;8.50;64.00
56538;DHT22;42435;53.292;6.000;2024-03-08T10:56:21;8.60;64.10
56538;DHT22;42435;53.292;6.000;2024-03-08T10:58:53;8.60;64.10
56538;DHT22;42435;53.292;6.000;2024-03-08T11:01:30;8.70;64.30
56538;DHT22;42435;53.292;6.000;2024-03-08T11:04:03;8.80;64.20
56538;DHT22;42435;53.292;6.000;2024-03-08T11:06:42;8.90;63.90
56538;DHT22;42435;53.292;6.000;2024-03-08T11:14:49;8.80;62.60
56538;DHT22;42435;53.292;6.000;2024-03-08T11:19:56;8.80;62.60
56538;DHT22;42435;53.292;6.000;2024-03-08T11:22:32;8.90;62.50
56538;DHT22;42435;53.292;6.000;2024-03-08T11:25:29;8.90;62.80
56538;DHT22;42435;53.292;6.000;2024-03-08T11:28:08;9.00;63.00
56538;DHT22;42435;53.292;6.000;2024-03-08T11:33:40;9.40;62.40
56538;DHT22;42435;53.292;6.000;2024-03-08T11:36:24;9.50;62.50
56538;DHT22;42435;53.292;6.000;2024-03-08T11:38:54;9.50;62.00
56538;DHT22;42435;53.292;6.000;2024-03-08T11:41:24;9.60;62.00
56538;DHT22;42435;53.292;6.000;2024-03-08T11:44:05;9.70;62.00
56538;DHT22;42435;53.292;6.000;2024-03-08T11:46:33;9.80;61.60
56538;DHT22;42435;53.292;6.000;2024-03-08T11:49:05;9.90;61.80
56538;DHT22;42435;53.292;6.000;2024-03-08T11:51:38;10.00;61.40
56538;DHT22;42435;53.292;6.000;2024-03-08T11:54:24;9.90;60.70
56538;DHT22;42435;53.292;6.000;2024-03-08T11:56:52;9.90;60.90
56538;DHT22;42435;53.292;6.000;2024-03-08T11:59:24;9.90;60.50
56538;DHT22;42435;53.292;6.000;2024-03-08T12:02:19;9.90;60.40
56538;DHT22;42435;53.292;6.000;2024-03-08T12:04:58;10.00;60.20
56538;DHT22;42435;53.292;6.000;2024-03-08T12:07:35;9.90;60.30
56538;DHT22;42435;53.292;6.000;2024-03-08T12:10:20;10.00;60.10
56538;DHT22;42435;53.292;6.000;2024-03-08T12:12:54;10.00;60.30
56538;DHT22;42435;53.292;6.000;2024-03-08T12:15:23;10.00;59.90
56538;DHT22;42435;53.292;6.000;2024-03-08T12:17:56;10.00;59.90
56538;DHT22;42435;53.292;6.000;2024-03-08T12:20:29;10.00;59.50
56538;DHT22;42435;53.292;6.000;2024-03-08T12:23:03;9.90;59.70
56538;DHT22;42435;53.292;6.000;2024-03-08T12:25:35;9.90;59.90
56538;DHT22;42435;53.292;6.000;2024-03-08T12:28:11;10.10;60.10
56538;DHT22;42435;53.292;6.000;2024-03-08T12:30:51;10.10;60.10
56538;DHT22;42435;53.292;6.000;2024-03-08T12:33:21;10.20;59.90
56538;DHT22;42435;53.292;6.000;2024-03-08T12:35:52;10.40;59.70
56538;DHT22;42435;53.292;6.000;2024-03-08T12:38:22;10.40;59.20
56538;DHT22;42435;53.292;6.000;2024-03-08T12:40:59;10.40;59.20
56538;DHT22;42435;53.292;6.000;2024-03-08T12:43:26;10.40;59.30
56538;DHT22;42435;53.292;6.000;2024-03-08T12:46:03;10.50;58.90
56538;DHT22;42435;53.292;6.000;2024-03-08T12:48:36;10.50;58.10
56538;DHT22;42435;53.292;6.000;2024-03-08T12:51:18;10.50;58.70
56538;DHT22;42435;53.292;6.000;2024-03-08T12:53:54;10.50;58.90
56538;DHT22;42435;53.292;6.000;2024-03-08T12:56:39;10.60;58.60
56538;DHT22;42435;53.292;6.000;2024-03-08T12:59:09;10.50;58.10
56538;DHT22;42435;53.292;6.000;2024-03-08T13:01:38;10.50;58.60
56538;DHT22;42435;53.292;6.000;2024-03-08T13:04:04;10.60;58.30
56538;DHT22;42435;53.292;6.000;2024-03-08T13:06:32;10.70;58.50
56538;DHT22;42435;53.292;6.000;2024-03-08T13:09:00;10.70;58.40
56538;DHT22;42435;53.292;6.000;2024-03-08T13:11:33;10.70;58.00
56538;DHT22;42435;53.292;6.000;2024-03-08T13:14:03;10.60;57.40
56538;DHT22;42435;53.292;6.000;2024-03-08T13:16:31;10.60;57.80
56538;DHT22;42435;53.292;6.000;2024-03-08T13:18:57;10.60;57.90
56538;DHT22;42435;53.292;6.000;2024-03-08T13:21:25;10.60;58.20
56538;DHT22;42435;53.292;6.000;2024-03-08T13:23:54;10.70;58.30
56538;DHT22;42435;53.292;6.000;2024-03-08T13:26:20;10.70;58.00
56538;DHT22;42435;53.292;6.000;2024-03-08T13:28:47;10.70;58.20
56538;DHT22;42435;53.292;6.000;2024-03-08T13:31:23;10.70;58.20
56538;DHT22;42435;53.292;6.000;2024-03-08T13:33:49;10.70;57.70
56538;DHT22;42435;53.292;6.000;2024-03-08T13:36:17;10.70;57.10
56538;DHT22;42435;53.292;6.000;2024-03-08T13:38:48;10.80;57.60
56538;DHT22;42435;53.292;6.000;2024-03-08T13:41:15;10.80;56.90
56538;DHT22;42435;53.292;6.000;2024-03-08T13:43:46;10.70;57.50
56538;DHT22;42435;53.292;6.000;2024-03-08T13:46:12;10.80;58.00
56538;DHT22;42435;53.292;6.000;2024-03-08T13:48:37;10.80;58.40
56538;DHT22;42435;53.292;6.000;2024-03-08T13:51:04;10.90;58.30
56538;DHT22;42435;53.292;6.000;2024-03-08T13:53:32;10.90;58.00
56538;DHT22;42435;53.292;6.000;2024-03-08T13:55:59;10.90;57.60
56538;DHT22;42435;53.292;6.000;2024-03-08T13:58:26;10.80;57.30
56538;DHT22;42435;53.292;6.000;2024-03-08T14:00:51;10.80;57.40
56538;DHT22;42435;53.292;6.000;2024-03-08T14:03:17;10.70;57.00
56538;DHT22;42435;53.292;6.000;2024-03-08T14:05:43;10.70;57.60
56538;DHT22;42435;53.292;6.000;2024-03-08T14:08:11;10.80;57.60
56538;DHT22;42435;53.292;6.000;2024-03-08T14:10:38;10.80;57.30
56538;DHT22;42435;53.292;6.000;2024-03-08T14:13:04;10.80;57.20
56538;DHT22;42435;53.292;6.000;2024-03-08T14:15:35;10.80;57.60
56538;DHT22;42435;53.292;6.000;2024-03-08T14:18:05;10.90;57.40
56538;DHT22;42435;53.292;6.000;2024-03-08T14:20:32;10.80;57.60
56538;DHT22;42435;53.292;6.000;2024-03-08T14:22:58;10.80;57.50
56538;DHT22;42435;53.292;6.000;2024-03-08T14:25:24;10.80;57.50
56538;DHT22;42435;53.292;6.000;2024-03-08T14:27:51;10.80;57.20
56538;DHT22;42435;53.292;6.000;2024-03-08T14:30:23;10.80;57.40
56538;DHT22;42435;53.292;6.000;2024-03-08T14:33:04;10.70;57.40
56538;DHT22;42435;53.292;6.000;2024-03-08T14:35:34;10.70;56.60
56538;DHT22;42435;53.292;6.000;2024-03-08T14:38:19;10.70;57.20
56538;DHT22;42435;53.292;6.000;2024-03-08T14:40:46;10.60;56.70
56538;DHT22;42435;53.292;6.000;2024-03-08T14:43:18;10.50;56.50
56538;DHT22;42435;53.292;6.000;2024-03-08T14:45:46;10.50;56.80
56538;DHT22;42435;53.292;6.000;2024-03-08T14:48:14;10.50;57.30
56538;DHT22;42435;53.292;6.000;2024-03-08T14:50:40;10.50;56.60
56538;DHT22;42435;53.292;6.000;2024-03-08T14:53:06;10.40;56.30
56538;DHT22;42435;53.292;6.000;2024-03-08T14:55:32;10.40;56.70
56538;DHT22;42435;53.292;6.000;2024-03-08T14:58:00;10.20;56.80
56538;DHT22;42435;53.292;6.000;2024-03-08T15:00:26;10.20;57.00
56538;DHT22;42435;53.292;6.000;2024-03-08T15:03:07;10.10;56.90
56538;DHT22;42435;53.292;6.000;2024-03-08T15:05:36;10.00;57.30
56538;DHT22;42435;53.292;6.000;2024-03-08T15:08:13;10.00;57.60
56538;DHT22;42435;53.292;6.000;2024-03-08T15:10:48;10.00;57.70
56538;DHT22;42435;53.292;6.000;2024-03-08T15:13:20;9.90;57.90
56538;DHT22;42435;53.292;6.000;2024-03-08T15:15:53;9.90;58.10
56538;DHT22;42435;53.292;6.000;2024-03-08T15:18:25;9.90;58.30
56538;DHT22;42435;53.292;6.000;2024-03-08T15:20:53;10.00;58.60
56538;DHT22;42435;53.292;6.000;2024-03-08T15:23:18;10.00;58.70
56538;DHT22;42435;53.292;6.000;2024-03-08T15:25:49;10.00;58.70
56538;DHT22;42435;53.292;6.000;2024-03-08T15:28:15;10.00;58.70
56538;DHT22;42435;53.292;6.000;2024-03-08T15:30:44;10.00;58.70
56538;DHT22;42435;53.292;6.000;2024-03-08T15:33:19;10.00;58.90
56538;DHT22;42435;53.292;6.000;2024-03-08T15:35:54;10.00;58.50
56538;DHT22;42435;53.292;6.000;2024-03-08T15:38:25;9.90;58.70
56538;DHT22;42435;53.292;6.000;2024-03-08T15:41:02;9.90;59.00
56538;DHT22;42435;53.292;6.000;2024-03-08T15:43:33;9.90;59.10
56538;DHT22;42435;53.292;6.000;2024-03-08T15:46:03;9.90;59.20
56538;DHT22;42435;53.292;6.000;2024-03-08T15:48:33;9.90;59.10
56538;DHT22;42435;53.292;6.000;2024-03-08T15:51:01;9.90;59.20
56538;DHT22;42435;53.292;6.000;2024-03-08T15:53:34;9.80;58.80
56538;DHT22;42435;53.292;6.000;2024-03-08T15:56:01;9.70;58.70
56538;DHT22;42435;53.292;6.000;2024-03-08T15:58:31;9.70;58.50
56538;DHT22;42435;53.292;6.000;2024-03-08T16:00:58;9.60;58.80
56538;DHT22;42435;53.292;6.000;2024-03-08T16:03:29;9.60;58.60
56538;DHT22;42435;53.292;6.000;2024-03-08T16:05:59;9.50;58.90
56538;DHT22;42435;53.292;6.000;2024-03-08T16:08:25;9.40;58.90
56538;DHT22;42435;53.292;6.000;2024-03-08T16:10:52;9.40;59.30
56538;DHT22;42435;53.292;6.000;2024-03-08T16:13:26;9.40;59.70
56538;DHT22;42435;53.292;6.000;2024-03-08T16:15:53;9.30;59.90